• Join FlightAware (Why Join?)
  • Login
  • US Flag 
04:59PM EST


 

Airport Tracker/Info


-or-


 

Live Flight TrackerFlight Track Log ✈ CTL13 ✈ 21-Jun-2013 ✈ KMDW - KGRR

Flight Track Log - Related Links

Times and Time Zones

All times are in EDT time to prevent confusion due to time zone crossing. See the CTL13 flight status page for this flight to view local times or setup timezone preferences in your user account.

Time Position Orientation Groundspeed Altitude Reporting Facility
EDT Latitude Longitude Course Direction KTS MPH feet Rate Location/Type
11:01PM 41.8000 -87.7667 90° East 163 188 1,800  Level Chicago TRACON
11:02PM 41.8000 -87.7167 90° East 149 171 2,800 720 Climbing Chicago TRACON
11:03PM 41.8064 -87.6772 78° East 149 171 3,200 660 Climbing Chicago Center
11:05PM 41.8108 -87.5381 88° East 167 192 4,700 540 Climbing Chicago Center
11:06PM 41.8158 -87.4725 84° East 173 199 5,000 60 Climbing Chicago Center
11:07PM 41.8158 -87.3958 90° East 188 216 4,900  Descending Chicago Center
11:08PM 41.8108 -87.3178 95° East 216 249 5,000 240 Climbing Chicago Center
11:09PM 41.8094 -87.2428 91° East 211 243 5,400 480 Climbing Chicago Center
11:10PM 41.8067 -87.1736 93° East 194 223 6,000 240 Climbing Chicago Center
11:11PM 41.8044 -87.0861 92° East 196 226 5,900  Descending Chicago Center
11:12PM 41.8011 -87.0094 93° East 204 235 6,000 60 Climbing Chicago Center
11:13PM 41.8083 -86.9397 82° East 196 226 6,100 480 Climbing Chicago Center
11:14PM 41.8414 -86.8964 44° Northeast 169 194 7,000 420 Climbing Chicago Center
11:15PM 41.8764 -86.8542 42° Northeast 168 193 7,000  Level Chicago Center
11:16PM 41.9103 -86.8083 45° Northeast 173 199 7,000  Level Chicago Center
11:17PM 41.9433 -86.7650 44° Northeast 170 196 7,000  Level Chicago Center
11:18PM 41.9781 -86.7242 41° Northeast 168 193 7,000  Level Chicago Center
11:19PM 42.0144 -86.6794 42° Northeast 170 196 7,000  Level Chicago Center
11:20PM 42.0478 -86.6375 43° Northeast 166 191 7,000  Level Chicago Center
11:21PM 42.0811 -86.5936 44° Northeast 168 193 7,000  Level Chicago Center
11:22PM 42.1147 -86.5506 44° Northeast 167 192 7,000  Level Chicago Center
11:23PM 42.1558 -86.5003 42° Northeast 166 191 7,000  Level Chicago Center
11:24PM 42.1903 -86.4581 42° Northeast 167 192 7,000  Level Chicago Center
11:25PM 42.2247 -86.4150 43° Northeast 169 194 7,000  Level Chicago Center
11:26PM 42.2572 -86.3719 44° Northeast 166 191 7,000  Level Chicago Center
11:27PM 42.2917 -86.3261 45° Northeast 171 197 7,000  Level Chicago Center
11:28PM 42.3236 -86.2861 43° Northeast 170 196 7,000  Level Chicago Center
11:29PM 42.3567 -86.2431 44° Northeast 167 192 7,000  Level Chicago Center
11:30PM 42.3889 -86.1986 46° Northeast 166 191 7,000  Level Chicago Center
11:31PM 42.4286 -86.1456 45° Northeast 167 192 7,100  Climbing Chicago Center
11:32PM 42.4600 -86.1008 46° Northeast 166 191 7,000 -60 Descending Chicago Center
11:33PM 42.4931 -86.0539 46° Northeast 170 196 7,000  Level Chicago Center
11:34PM 42.5264 -86.0103 44° Northeast 169 194 7,000 -60 Level Chicago Center
11:35PM 42.5589 -85.9647 46° Northeast 169 194 6,900 -420 Descending Chicago Center
11:36PM 42.5953 -85.9142 46° Northeast 180 207 6,200 -660 Descending Chicago Center
11:38PM 42.6356 -85.8622 43° Northeast 195 224 5,600 -660 Descending Chicago Center
11:39PM 42.6725 -85.8081 47° Northeast 196 226 4,900 -720 Descending Chicago Center
11:40PM 42.7094 -85.7517 48° Northeast 199 229 4,200 -720 Descending Chicago Center
11:41PM 42.7497 -85.6969 45° Northeast 204 235 3,500 -720 Descending Chicago Center
11:42PM 42.7983 -85.6344 43° Northeast 203 234 2,800 -720 Descending Chicago Center
11:43PM 42.8356 -85.5817 46° Northeast 199 229 2,100 -480 Descending Chicago Center
11:44PM 42.8547 -85.5189 67° East 193 222 1,900 -300 Descending Chicago Center
11:45PM 42.8739 -85.4769 58° Northeast 165 190 1,500 -540 Descending Chicago Center
11:46PM 42.8800 -85.5069 286° West 130 150 900 -600 Descending Chicago Center
11:48PM 42.8667 -85.5167 56° Northeast  Level FlightAware Approximate